createdAt,value
2022-11-30T00:04:05.572Z,0.0
2022-11-30T00:10:45.599Z,0.0
2022-11-30T00:21:20.362Z,0.0
2022-11-30T00:37:25.065Z,0.0
2022-11-30T00:46:29.193Z,0.0
2022-11-30T00:52:57.556Z,0.0
2022-11-30T01:10:29.516Z,0.0
2022-11-30T01:17:26.792Z,0.0
2022-11-30T01:25:31.098Z,0.0
2022-11-30T01:31:59.485Z,0.0
2022-11-30T01:38:28.141Z,0.0
2022-11-30T01:44:56.790Z,0.0
2022-11-30T01:55:00.718Z,0.0
2022-11-30T02:01:29.443Z,0.0
2022-11-30T02:07:58.004Z,0.0
2022-11-30T02:15:29.806Z,0.0
2022-11-30T02:22:00.418Z,0.0
2022-11-30T02:28:31.050Z,0.0
2022-11-30T02:46:06.637Z,0.0
2022-11-30T02:52:37.687Z,0.0
2022-11-30T02:59:05.875Z,0.0
2022-11-30T03:05:35.192Z,0.0
2022-11-30T03:16:22.719Z,0.0
2022-11-30T03:26:14.579Z,0.0
2022-11-30T03:38:54.223Z,0.0
2022-11-30T03:45:21.985Z,0.0
2022-11-30T03:53:11.076Z,0.0
2022-11-30T04:01:41.313Z,0.0
2022-11-30T04:12:02.753Z,0.0
2022-11-30T04:26:06.183Z,0.0
2022-11-30T04:36:24.176Z,0.0
2022-11-30T04:42:51.094Z,0.0
2022-11-30T04:55:23.944Z,0.0
2022-11-30T05:01:53.378Z,0.0
2022-11-30T05:12:04.517Z,0.0
2022-11-30T05:18:37.766Z,0.0
2022-11-30T05:29:20.758Z,0.0
2022-11-30T05:35:51.598Z,0.0
2022-11-30T05:45:06.510Z,0.0
2022-11-30T05:57:43.693Z,0.0
2022-11-30T06:08:12.755Z,0.0
2022-11-30T06:15:33.968Z,0.0
2022-11-30T06:24:45.864Z,0.0
2022-11-30T06:46:32.322Z,0.0
2022-11-30T06:53:05.202Z,0.0
2022-11-30T06:59:37.385Z,0.0
2022-11-30T07:13:37.360Z,0.0
2022-11-30T07:20:06.822Z,0.0
2022-11-30T07:31:22.960Z,0.0
2022-11-30T07:45:10.986Z,0.0
2022-11-30T07:56:47.013Z,0.9830769230769228
2022-11-30T08:03:15.085Z,1.8419397993311033
2022-11-30T08:17:19.591Z,1.9257859531772559
2022-11-30T08:23:49.497Z,2.6549832775919713
2022-11-30T08:36:09.648Z,2.963712374581938
2022-11-30T08:42:39.848Z,3.7483612040133765
2022-11-30T08:56:11.052Z,6.281137123745817
2022-11-30T09:02:41.929Z,7.874515050167224
2022-11-30T09:15:35.542Z,9.45739130434783
2022-11-30T09:26:13.578Z,10.075284280936454
2022-11-30T09:33:05.955Z,10.614581939799333
2022-11-30T09:39:44.642Z,10.13070234113713
2022-11-30T09:50:45.723Z,8.799632107023413
2022-11-30T09:57:18.452Z,9.643344481605356
2022-11-30T10:03:51.173Z,10.47224080267559
2022-11-30T10:10:33.329Z,13.572642140468227
2022-11-30T10:17:03.884Z,14.7975585284281
2022-11-30T10:23:34.067Z,13.004983277591972
2022-11-30T10:30:04.878Z,11.829264214046827
2022-11-30T10:41:32.995Z,14.162842809364538
2022-11-30T10:54:27.930Z,13.033612040133779
2022-11-30T11:00:58.511Z,16.35792642140468
2022-11-30T11:07:29.062Z,14.625618729097
2022-11-30T11:21:45.199Z,20.50003344481606
2022-11-30T11:48:55.487Z,18.45538461538461
2022-11-30T11:55:24.405Z,16.571337792642133
2022-11-30T12:01:52.540Z,17.115886287625415
2022-11-30T12:08:22.271Z,15.425217391304345
2022-11-30T12:17:42.791Z,15.80080267558527
2022-11-30T12:27:02.335Z,14.803545150501686
2022-11-30T12:33:31.277Z,14.187692307692304
2022-11-30T12:39:59.519Z,12.515317725752508
2022-11-30T12:46:34.581Z,14.23424749163879
2022-11-30T12:53:03.583Z,12.469130434782603
2022-11-30T12:59:31.209Z,12.553210702341133
2022-11-30T13:05:59.583Z,11.038260869565214
2022-11-30T13:12:30.740Z,8.45123745819398
2022-11-30T13:23:37.194Z,7.60705685618729
2022-11-30T13:34:48.634Z,12.711070234113707
2022-11-30T13:42:02.944Z,6.956622073578588
2022-11-30T13:48:31.132Z,6.368127090300999
2022-11-30T13:54:58.767Z,6.393110367892974
2022-11-30T14:05:59.748Z,3.578060200668897
2022-11-30T14:18:44.754Z,1.9541137123745822
2022-11-30T14:25:13.122Z,1.7807357859531778
2022-11-30T14:31:42.810Z,1.1392642140468228
2022-11-30T14:39:38.120Z,0.8700668896321062
2022-11-30T14:46:09.145Z,0.3553177257525083
2022-11-30T14:52:39.893Z,0.0
2022-11-30T15:03:23.266Z,0.0
2022-11-30T15:09:52.024Z,0.0
2022-11-30T15:16:19.826Z,0.0
2022-11-30T15:22:54.739Z,0.0
2022-11-30T15:39:33.678Z,0.0
2022-11-30T15:46:00.816Z,0.0
2022-11-30T15:52:28.829Z,0.0
2022-11-30T15:59:06.805Z,0.0
2022-11-30T16:05:35.483Z,0.0
2022-11-30T16:14:52.614Z,0.0
2022-11-30T16:21:20.229Z,0.0
2022-11-30T16:27:48.978Z,0.0
2022-11-30T16:34:16.865Z,0.0
2022-11-30T16:47:48.215Z,0.0
2022-11-30T16:57:14.407Z,0.0
2022-11-30T17:03:43.754Z,0.0
2022-11-30T17:11:44.479Z,0.0
2022-11-30T17:29:10.832Z,0.0
2022-11-30T17:38:58.902Z,0.0
2022-11-30T17:51:23.358Z,0.0
2022-11-30T17:57:50.032Z,0.0
2022-11-30T18:04:34.765Z,0.0
2022-11-30T18:18:47.093Z,0.0
2022-11-30T18:25:15.380Z,0.0
2022-11-30T18:31:42.400Z,0.0
2022-11-30T18:52:37.193Z,0.0
2022-11-30T18:59:23.820Z,0.0
2022-11-30T19:05:51.430Z,0.0
2022-11-30T19:14:52.094Z,0.0
2022-11-30T19:27:03.345Z,0.0
2022-11-30T19:33:34.799Z,0.0
2022-11-30T19:45:48.620Z,0.0
2022-11-30T19:54:38.508Z,0.0
2022-11-30T20:01:05.253Z,0.0
2022-11-30T20:12:10.905Z,0.0
2022-11-30T20:18:45.473Z,0.0
2022-11-30T20:25:15.884Z,0.0
2022-11-30T20:31:45.234Z,0.0
2022-11-30T20:38:15.902Z,0.0
2022-11-30T20:44:52.109Z,0.0
2022-11-30T20:51:34.996Z,0.0
2022-11-30T20:58:08.913Z,0.0
2022-11-30T21:04:41.395Z,0.0
2022-11-30T21:18:13.281Z,0.0
2022-11-30T21:26:05.301Z,0.0
2022-11-30T21:38:40.683Z,0.0
2022-11-30T21:49:25.877Z,0.0
2022-11-30T21:58:42.211Z,0.0
2022-11-30T22:05:12.825Z,0.0
2022-11-30T22:11:43.694Z,0.0
2022-11-30T22:18:16.211Z,0.0
2022-11-30T22:25:06.175Z,0.0
2022-11-30T22:35:10.989Z,0.0
2022-11-30T22:51:48.803Z,0.0
2022-11-30T22:58:36.233Z,0.0
2022-11-30T23:05:57.878Z,0.0
2022-11-30T23:12:57.425Z,0.0
2022-11-30T23:19:26.079Z,0.0
2022-11-30T23:26:41.380Z,0.0
2022-11-30T23:35:47.790Z,0.0
2022-11-30T23:50:17.813Z,0.0
2022-11-30T23:56:45.242Z,0.0
